Tiempo atmosférico en la estación meteorológica de Arcos de Jalón, Soria (863 m.)



Fecha
DESCASC
Temp. máxima en grados centígrados (hora)
DESCASC
Temp. mínima en grados centígrados (hora)
DESCASC
Temp. media en grados centígrados
DESCASC
Racha de viento máxima en m/sg (hora)
DESCASC
Velocidad máxima media en intervalos de 10 minutos(hora)
DESCASC
Precipitaciones diarias en mm
DESCASC
Precipitaciones de 00:00 a 06:00 en mm
DESCASC
Precipitaciones de 06:00 a 12:00 en mm
DESCASC
Precipitaciones de 12:00 a 18:00 en mm
DESCASC
Precipitaciones de 18:00 a 24:00 en mm
DESCASC
21-02-2021 13.4 (14:20) 3.8 (07:30) 8.6 9.72 (18:30) 5.28 (19:10) 0 0 0 0 0
20-02-2021 18.5 (14:00) 1.2 (08:10) 9.9 17.22 (13:10) 11.39 (13:40) 0 0 0 0 0
19-02-2021 17.1 (15:30) 3.7 (04:50) 10.4 16.39 (13:30) 11.11 (13:30) 0 0 0 0 0
18-02-2021 16.2 (14:30) 5 (00:00) 10.6 15.28 (14:50) 11.11 (14:50) 0 0 0 0 0
17-02-2021 17.1 (16:30) 4.4 (00:00) 10.8 12.78 (16:00) 8.06 (15:40) 0 0 0 0 0
16-02-2021 16.9 (15:40) 4.3 (00:00) 10.6 14.17 (16:20) 8.89 (13:10) 0 0 0 0 0
15-02-2021 15.4 (16:00) 0.7 (00:00) 8 9.72 (09:10) 6.39 (13:20) 0 0 0 0 0
14-02-2021 16.2 (16:50) 1.8 (00:00) 9 5.56 (17:50) 3.89 (02:00) 0 0 0 0 0
13-02-2021 12.7 (15:40) 1.9 (00:00) 7.3 8.33 (14:40) 5.83 (14:40) 0 0 0 0 0
12-02-2021 11.6 (17:00) 6.5 (00:00) 9.1 14.44 (13:50) 10 (13:40) 3.4 0 3.4 0 0
11-02-2021 14.2 (15:20) 2.8 (00:00) 8.5 11.67 (13:30) 7.78 (14:30) 0 0 0 0 0
10-02-2021 10.3 (16:30) 2.7 (00:00) 6.5 19.72 (10:20) 14.17 (10:20) 6 6 0 0 0
09-02-2021 7.8 (14:50) 1.8 (00:00) 4.8 22.5 (13:30) 13.89 (13:00) 6.2 0 0.2 5.4 0.6
08-02-2021 9.6 (16:00) 3.8 (00:00) 6.7 16.11 (12:50) 10 (12:50) 2.8 1 1.4 0.2 0.2
07-02-2021 9.2 (15:50) 1 (00:00) 5.1 13.33 (19:00) 8.33 (22:50) 0 0 0 0 0
06-02-2021 12.6 (16:00) 4.7 (00:00) 8.7 15 (00:40) 8.61 (00:40) 4 1.8 0 0.6 1.6
05-02-2021 16.1 (16:10) 2.4 (00:00) 9.3 7.22 (17:30) 4.44 (17:30) 0 0 0 0 0
04-02-2021 17.6 (14:10) 5.4 (00:00) 11.5 10.83 (15:30) 7.78 (15:30) 0 0 0 0 0
03-02-2021 11.2 (17:00) 7.9 (00:00) 9.5 19.17 (01:10) 11.67 (07:50) 0 0 0 0 0
02-02-2021 13.1 (14:40) 6.4 (04:00) 9.8 16.67 (23:20) 10.28 (23:50) 0 0 0 0 0
01-02-2021 13.7 (13:20) 6.2 (00:00) 9.9 21.39 (01:10) 14.17 (01:20) 0 0 0 0 0
31-01-2021 13.3 (16:00) 5.1 (00:00) 9.2 19.17 (03:00) 13.33 (23:40) 0 0 0 0 0
30-01-2021 10.2 (14:50) 5.5 (00:00) 7.8 20.83 (15:40) 14.44 (15:00) 3.8 0.2 3.4 0.2 0
29-01-2021 15.7 (16:50) 7.4 (00:00) 11.5 11.39 (23:59) 7.22 (23:40) 0 0 0 0 0
28-01-2021 15.9 (15:40) 7.1 (00:00) 11.5 11.67 (18:00) 7.22 (18:20) 0 0 0 0 0
27-01-2021 15.3 (16:30) 7.3 (00:00) 11.3 11.94 (11:10) 8.33 (11:10) 0.2 0 0.2 0 0
26-01-2021 12.1 (15:10) 0.6 (00:00) 6.4 7.22 (15:20) 5.83 (05:10) 1.4 0 0.2 0 1.2
25-01-2021 11 (12:40) 2.8 (00:00) 6.9 16.94 (08:10) 10.28 (06:30) 7.4 0.4 1.2 5.8 0

Gráficas

Temp. máximas Temp. mínimas Temp. medias Precipitaciones Rachas de viento máximas Velocidades máximas media en intervalos de 10 minutos

Datos horarios

Fecha y hora oficial Temperatura (ºC) Velocidad del viento (km/h) Dirección del viento Racha (km/h) Dirección de racha Precipitación (mm) Presión (hPa) Tendencia (hPa) Humedad (%)
2021-02-23 23:00:00 4.9 9 Oeste 14 Sudoeste 0 -- -- 84
2021-02-23 22:00:00 5.4 11 Sudoeste 15 Sudoeste 0 -- -- 86
2021-02-23 21:00:00 6.4 11 Oeste 13 Oeste 0 -- -- 84
2021-02-23 20:00:00 7.5 7 Sudoeste 10 Sudoeste 0 -- -- 79
2021-02-23 19:00:00 11 0 Calma 10 Nordeste 0 -- -- 67
2021-02-23 18:00:00 12.6 6 Nordeste 15 Nordeste 0 -- -- 60
2021-02-23 17:00:00 12.9 7 Nordeste 22 Nordeste 0 -- -- 60
2021-02-23 16:00:00 12.6 10 Nordeste 22 Nordeste 0 -- -- 64
2021-02-23 15:00:00 12 11 Nordeste 20 Nordeste 0 -- -- 66
2021-02-23 14:00:00 11 8 Nordeste 17 Nordeste 0 -- -- 67
2021-02-23 13:00:00 9.8 9 Nordeste 15 Nordeste 0 -- -- 71
2021-02-23 12:00:00 8.7 3 Noroeste 10 Este 0 -- -- 73
2021-02-23 11:00:00 7.5 6 Nordeste 11 Nordeste 0 -- -- 75
2021-02-23 10:00:00 5.5 4 Norte 8 Nordeste 0 -- -- 82
2021-02-23 09:00:00 3 3 Sur 8 Sur 0 -- -- 90
2021-02-23 08:00:00 2.9 2 Este 4 Nordeste 0 -- -- 88
2021-02-23 07:00:00 3.8 3 Sudeste 11 Nordeste 0 -- -- 87
2021-02-23 06:00:00 4.5 0 Calma 10 Sudeste 0 -- -- 86
2021-02-23 05:00:00 4.6 7 Este 11 Este 0 -- -- 86
2021-02-23 04:00:00 5.1 0 Calma 5 Este 0 -- -- 92
2021-02-23 03:00:00 5.3 3 Nordeste 5 Nordeste 0 -- -- 92
2021-02-23 02:00:00 5.3 0 Calma 3 Nordeste 0 -- -- 91
2021-02-23 01:00:00 5.3 0 Calma 4 Nordeste 0 -- -- 91
2021-02-23 00:00:00 5.3 0 Calma 2 Norte 0 -- -- 91
2021-02-22 23:00:00 5.4 0 Calma 3 Sudoeste 0 -- -- 90
2021-02-22 22:00:00 5.3 0 Calma 12 Oeste 0 -- -- 90
2021-02-22 21:00:00 5.3 9 Oeste 17 Oeste 0 -- -- 89
2021-02-22 20:00:00 5.4 5 Oeste 18 Oeste 0 -- -- 88
2021-02-22 19:00:00 5.4 14 Oeste 24 Oeste 0 -- -- 88
2021-02-22 18:00:00 5.6 12 Oeste 21 Oeste 0.4 -- -- 88
2021-02-22 17:00:00 6.3 14 Oeste 23 Oeste 0 -- -- 83
2021-02-22 16:00:00 6.4 12 Oeste 24 Oeste 0 -- -- 82
2021-02-22 15:00:00 6.1 13 Oeste 22 Oeste 0 -- -- 85
2021-02-22 14:00:00 5.1 14 Oeste 21 Sudoeste 0.4 -- -- 88
2021-02-22 13:00:00 4.1 8 Sudoeste 15 Sudoeste 0.2 -- -- 91
2021-02-22 12:00:00 3.2 6 Sudoeste 13 Sudoeste 1.8 -- -- 90
2021-02-22 11:00:00 3.3 4 Sudoeste 13 Sudoeste 0.6 -- -- 90
2021-02-22 10:00:00 3.1 8 Sudoeste 15 Sudoeste 0.2 -- -- 90
2021-02-22 09:00:00 2.8 9 Sudoeste 26 Sudoeste 0.2 -- -- 89
2021-02-22 08:00:00 3.1 22 Sudoeste 35 Sudoeste 0 -- -- 85
2021-02-22 07:00:00 3.5 19 Sudoeste 30 Sudoeste 0 -- -- 86
2021-02-22 06:00:00 3.5 19 Sudoeste 31 Sudoeste 0.2 -- -- 87
2021-02-22 05:00:00 3.5 14 Sudoeste 31 Sudoeste 0 -- -- 88
2021-02-22 04:00:00 3.3 17 Sudoeste 30 Sudoeste 0.2 -- -- 89
2021-02-22 03:00:00 3.3 19 Sudoeste 31 Sudoeste 0.6 -- -- 89
2021-02-22 02:00:00 4.6 10 Sudoeste 39 Sudoeste 0.4 -- -- 86
2021-02-22 01:00:00 7.1 27 Sudoeste 38 Sudoeste 0 -- -- 82
2021-02-22 00:00:00 8.5 8 Norte 14 Norte 0 -- -- 85
2021-02-21 23:00:00 8.8 7 Nordeste 19 Nordeste 0 -- -- 84
2021-02-21 22:00:00 9 8 Nordeste 16 Nordeste 0 -- -- 82
2021-02-21 21:00:00 9.1 8 Nordeste 26 Nordeste 0 -- -- 81
2021-02-21 20:00:00 9.5 19 Nordeste 32 Nordeste 0 -- -- 79
2021-02-21 19:00:00 10.3 18 Nordeste 35 Norte 0 -- -- 73
2021-02-21 18:00:00 11.6 15 Nordeste 28 Nordeste 0 -- -- 67
2021-02-21 17:00:00 12.5 11 Nordeste 21 Nordeste 0 -- -- 57
2021-02-21 16:00:00 12.8 11 Norte 21 Nordeste 0 -- -- 59
2021-02-21 15:00:00 13.3 4 Sur 15 Noroeste 0 -- -- 59
2021-02-21 14:00:00 13.2 4 Noroeste 13 Nordeste 0 -- -- 60
2021-02-21 13:00:00 10.9 9 Nordeste 17 Nordeste 0 -- -- 65
2021-02-21 12:00:00 10 8 Nordeste 18 Nordeste 0 -- -- 67
2021-02-21 11:00:00 9 7 Norte 12 Nordeste 0 -- -- 68
2021-02-21 10:00:00 6.9 3 Sudoeste 8 Sudoeste 0 -- -- 80
2021-02-21 09:00:00 4.6 0 Calma 4 Sudeste 0 -- -- 86
2021-02-21 08:00:00 3.9 2 Sudoeste 5 Sur 0 -- -- 85
2021-02-21 07:00:00 3.9 0 Calma 6 Noroeste 0 -- -- 84
2021-02-21 06:00:00 4.2 2 Sudeste 8 Sudoeste 0 -- -- 82
2021-02-21 05:00:00 4.2 0 Calma 6 Sur 0 -- -- 80
2021-02-21 04:00:00 5.3 3 Sudoeste 13 Noroeste 0 -- -- 79
2021-02-21 03:00:00 4.5 0 Calma 11 Sudeste 0 -- -- 73
2021-02-21 02:00:00 5.1 3 Oeste 10 Sudeste 0 -- -- 72
2021-02-21 01:00:00 6.1 0 Calma 9 Oeste 0 -- -- 69
2021-02-21 00:00:00 6.7 5 Sudoeste 9 Sudoeste 0 -- -- 65
2021-02-20 23:00:00 7.9 3 Sudoeste 13 Oeste 0 -- -- 59
2021-02-20 22:00:00 9.2 0 Calma 8 Sudoeste 0 -- -- 53
2021-02-20 21:00:00 11.3 4 Sudoeste 12 Sur 0 -- -- 45
2021-02-20 20:00:00 14 5 Sur 30 Sur 0 -- -- 38
2021-02-20 19:00:00 15.2 13 Sur 41 Sur 0 -- -- 35
2021-02-20 18:00:00 16.5 33 Sur 52 Sur 0 -- -- 33
2021-02-20 17:00:00 16.6 31 Sur 55 Sur 0 -- -- 31
2021-02-20 16:00:00 16.9 38 Sur 55 Sur 0 -- -- 25
2021-02-20 15:00:00 16.9 32 Sur 55 Sur 0 -- -- 28
2021-02-20 14:00:00 18.5 37 Sur 62 Sur 0 -- -- 29
2021-02-20 13:00:00 17 37 Sur 57 Sudoeste 0 -- -- 31
2021-02-20 12:00:00 16.1 17 Sur 39 Sudeste 0 -- -- 35
2021-02-20 11:00:00 11.1 6 Nordeste 12 Norte 0 -- -- 56
2021-02-20 10:00:00 5.9 0 Calma 5 Sur 0 -- -- 71
2021-02-20 09:00:00 2.4 0 Calma 8 Sur 0 -- -- 84
2021-02-20 08:00:00 1.3 0 Calma 5 Noroeste 0 -- -- 83
2021-02-20 07:00:00 1.8 2 Sudoeste 5 Nordeste 0 -- -- 81
2021-02-20 06:00:00 1.9 0 Calma 5 Sudoeste 0 -- -- 81
2021-02-20 05:00:00 1.7 3 Sudoeste 9 Sur 0 -- -- 80
2021-02-20 04:00:00 2.7 2 Sudoeste 11 Sur 0 -- -- 75
2021-02-20 03:00:00 3.7 2 Norte 6 Norte 0 -- -- 72
2021-02-20 02:00:00 4.7 2 Nordeste 12 Sur 0 -- -- 68
2021-02-20 01:00:00 5.8 3 Nordeste 8 Nordeste 0 -- -- 66
2021-02-20 00:00:00 5.7 2 Noroeste 12 Oeste 0 -- -- 68
2021-02-19 23:00:00 5.7 7 Sudoeste 11 Sudoeste 0 -- -- 67
2021-02-19 22:00:00 6.2 0 Calma 4 Oeste 0 -- -- 64
2021-02-19 21:00:00 7.5 2 Sudoeste 8 Sudoeste 0 -- -- 57
2021-02-19 20:00:00 9.9 5 Sudoeste 14 Sur 0 -- -- 49
2021-02-19 19:00:00 13.3 13 Sur 36 Sur 0 -- -- 38
2021-02-19 18:00:00 15.8 27 Sur 44 Sur 0 -- -- 32
2021-02-19 17:00:00 16.6 29 Sur 50 Sudoeste 0 -- -- 32
2021-02-19 16:00:00 17 27 Sur 48 Sur 0 -- -- 34
2021-02-19 15:00:00 16.6 30 Sur 54 Sur 0 -- -- 36
2021-02-19 14:00:00 16.1 31 Sur 59 Sudoeste 0 -- -- 36
2021-02-19 13:00:00 15.7 29 Sudoeste 50 Sudoeste 0 -- -- 36
2021-02-19 12:00:00 14.4 22 Sur 37 Sudoeste 0 -- -- 48
2021-02-19 11:00:00 12 18 Sur 33 Sur 0 -- -- 54
2021-02-19 10:00:00 9.9 4 Sur 14 Oeste 0 -- -- 60
2021-02-19 09:00:00 6.8 4 Sudoeste 21 Oeste 0 -- -- 72
2021-02-19 08:00:00 5 10 Sudoeste 18 Oeste 0 -- -- 79
2021-02-19 07:00:00 4.7 11 Oeste 17 Oeste 0 -- -- 78
2021-02-19 06:00:00 5 9 Oeste 15 Sudoeste 0 -- -- 75
2021-02-19 05:00:00 3.8 6 Sudoeste 15 Sudoeste 0 -- -- 78
2021-02-19 04:00:00 5.5 5 Oeste 15 Sur 0 -- -- 70
2021-02-19 03:00:00 5.9 8 Sur 13 Sur 0 -- -- 68
2021-02-19 02:00:00 7.3 3 Sudoeste 17 Sur 0 -- -- 61
2021-02-19 01:00:00 8.1 13 Sudoeste 21 Sudoeste 0 -- -- 59
2021-02-19 00:00:00 8.4 18 Sudoeste 27 Sur 0 -- -- 55
2021-02-18 23:00:00 9 16 Sur 31 Sudoeste 0 -- -- 51
2021-02-18 22:00:00 9.8 21 Sur 32 Sudoeste 0 -- -- 47
2021-02-18 21:00:00 10.3 17 Sudoeste 28 Sudoeste 0 -- -- 46
2021-02-18 20:00:00 10.8 17 Sur 28 Sur 0 -- -- 48
2021-02-18 19:00:00 11.9 14 Sudoeste 34 Sudoeste 0 -- -- 50
2021-02-18 18:00:00 13.8 26 Sudoeste 40 Sudoeste 0 -- -- 44
2021-02-18 17:00:00 15.1 33 Sudoeste 54 Sudoeste 0 -- -- 38
2021-02-18 16:00:00 15.7 38 Sudoeste 52 Sudoeste 0 -- -- 34
2021-02-18 15:00:00 15.9 37 Sudoeste 55 Sudoeste 0 -- -- 35
2021-02-18 14:00:00 16 31 Sudoeste 53 Sudoeste 0 -- -- 41
2021-02-18 13:00:00 15.7 27 Sudoeste 42 Sur 0 -- -- 42
2021-02-18 12:00:00 14.7 25 Sur 39 Sur 0 -- -- 47
2021-02-18 11:00:00 13.2 23 Sur 36 Sur 0 -- -- 52
2021-02-18 10:00:00 11.5 17 Sudoeste 26 Oeste 0 -- -- 53
2021-02-18 09:00:00 5.3 4 Oeste 13 Sur 0 -- -- 70
2021-02-18 08:00:00 5.9 7 Sur 18 Oeste 0 -- -- 66
2021-02-18 07:00:00 6 10 Oeste 21 Oeste 0 -- -- 66
2021-02-18 06:00:00 6.5 14 Oeste 22 Sudoeste 0 -- -- 67
2021-02-18 05:00:00 6.3 15 Sudoeste 31 Sur 0 -- -- 67
2021-02-18 04:00:00 8.8 22 Sudoeste 32 Sudoeste 0 -- -- 57
2021-02-18 03:00:00 7 15 Sudoeste 22 Sudoeste 0 -- -- 67
2021-02-18 02:00:00 7.2 13 Oeste 21 Oeste 0 -- -- 69
2021-02-18 01:00:00 5.7 9 Sudoeste 19 Oeste 0 -- -- 75
2021-02-18 00:00:00 6 5 Oeste 10 Oeste 0 -- -- 76
2021-02-17 23:00:00 6 3 Sudoeste 6 Sudoeste 0 -- -- 74
2021-02-17 22:00:00 6.9 0 Calma 14 Oeste 0 -- -- 70
2021-02-17 21:00:00 7.9 5 Sudoeste 11 Oeste 0 -- -- 66
2021-02-17 20:00:00 9.4 0 Calma 12 Oeste 0 -- -- 58
2021-02-17 19:00:00 12.2 9 Sudoeste 26 Sudoeste 0 -- -- 50
2021-02-17 18:00:00 14.6 21 Sudoeste 38 Sur 0 -- -- 39
2021-02-17 17:00:00 16.5 26 Sudoeste 41 Sudoeste 0 -- -- 37
2021-02-17 16:00:00 16.4 21 Sudoeste 46 Sur 0 -- -- 45
2021-02-17 15:00:00 16 27 Sudoeste 41 Sudoeste 0 -- -- 45
2021-02-17 14:00:00 15.1 27 Sudoeste 36 Sudoeste 0 -- -- 55
2021-02-17 13:00:00 14.6 22 Sur 32 Sur 0 -- -- 54
2021-02-17 12:00:00 11.9 19 Sur 29 Sur 0 -- -- 66
2021-02-17 11:00:00 11.9 12 Sur 20 Sur 0 -- -- 67
2021-02-17 10:00:00 10.1 8 Sudoeste 18 Sur 0 -- -- 74
2021-02-17 09:00:00 6.3 11 Oeste 15 Oeste 0 -- -- 85
2021-02-17 08:00:00 5 11 Oeste 20 Oeste 0 -- -- 85
2021-02-17 07:00:00 4.9 14 Oeste 18 Oeste 0 -- -- 87
2021-02-17 06:00:00 4.8 12 Oeste 17 Oeste 0 -- -- 87
2021-02-17 05:00:00 4.5 9 Sudoeste 18 Oeste 0 -- -- 86
2021-02-17 04:00:00 4.9 12 Oeste 15 Oeste 0 -- -- 87
2021-02-17 03:00:00 4.7 5 Sudoeste 13 Oeste 0 -- -- 86
2021-02-17 02:00:00 4.8 8 Oeste 16 Oeste 0 -- -- 86
2021-02-17 01:00:00 5.1 11 Oeste 15 Oeste 0 -- -- 85
2021-02-17 00:00:00 5.7 5 Sudoeste 10 Oeste 0 -- -- 82
2021-02-16 23:00:00 6.7 3 Sudoeste 10 Sudoeste 0 -- -- 79
2021-02-16 22:00:00 7.9 0 Calma 23 Sur 0 -- -- 74
2021-02-16 21:00:00 9.7 16 Sudoeste 26 Sudoeste 0 -- -- 69
2021-02-16 20:00:00 10.1 8 Sudoeste 21 Sudoeste 0 -- -- 67
2021-02-16 19:00:00 11.3 18 Oeste 37 Sudoeste 0 -- -- 62
2021-02-16 18:00:00 13.9 25 Sudoeste 41 Sur 0 -- -- 48
2021-02-16 17:00:00 15.5 27 Sudoeste 51 Sudoeste 0 -- -- 46
2021-02-16 16:00:00 16.3 27 Sudoeste 44 Sur 0 -- -- 41
2021-02-16 15:00:00 16.1 29 Sur 46 Sur 0 -- -- 48
2021-02-16 14:00:00 14.8 30 Sur 49 Sur 0 -- -- 52
2021-02-16 13:00:00 15.2 28 Sur 49 Sur 0 -- -- 51
2021-02-16 12:00:00 13.5 30 Sur 45 Sur 0 -- -- 59
2021-02-16 11:00:00 11.3 21 Sur 40 Sur 0 -- -- 67
2021-02-16 10:00:00 8.5 25 Sudoeste 39 Sudoeste 0 -- -- 74
2021-02-16 09:00:00 6.6 13 Sudoeste 35 Sudoeste 0 -- -- 80
2021-02-16 08:00:00 6 20 Sudoeste 32 Sudoeste 0 -- -- 80
2021-02-16 07:00:00 5.8 21 Sur 35 Sur 0 -- -- 81
2021-02-16 06:00:00 5.2 9 Sur 20 Sur 0 -- -- 81
2021-02-16 05:00:00 5.4 2 Noroeste 15 Sur 0 -- -- 81
2021-02-16 04:00:00 6 6 Sur 35 Sur 0 -- -- 79
2021-02-16 03:00:00 6.8 25 Sudoeste 37 Sur 0 -- -- 78
2021-02-16 02:00:00 6.8 21 Sur 45 Sudoeste 0 -- -- 78
2021-02-16 01:00:00 7.2 19 Sur 41 Sudoeste 0 -- -- 77
2021-02-16 00:00:00 7.2 14 Sudoeste 28 Sudoeste 0 -- -- 78
2021-02-15 23:00:00 7.4 14 Sur 26 Sur 0 -- -- 80
2021-02-15 22:00:00 6 0 Calma 8 Oeste 0 -- -- 83
2021-02-15 21:00:00 7.7 9 Sudoeste 15 Sur 0 -- -- 78
2021-02-15 20:00:00 9.7 10 Sur 23 Sudoeste 0 -- -- 71
2021-02-15 19:00:00 11.1 14 Sudoeste 21 Sudoeste 0 -- -- 67
2021-02-15 18:00:00 13.8 13 Sudoeste 22 Sur 0 -- -- 59
2021-02-15 17:00:00 15 12 Sur 22 Sur 0 -- -- 56
2021-02-15 16:00:00 15.4 14 Sur 27 Sudoeste 0 -- -- 55
2021-02-15 15:00:00 14.8 16 Sudoeste 30 Sudoeste 0 -- -- 57
2021-02-15 14:00:00 13.5 18 Sudoeste 32 Sudoeste 0 -- -- 62
2021-02-15 13:00:00 11.5 21 Sudoeste 35 Sudoeste 0 -- -- 68
2021-02-15 12:00:00 8.8 22 Sur 33 Sudoeste 0 -- -- 76
2021-02-15 11:00:00 7.7 17 Sudoeste 28 Sur 0 -- -- 81
2021-02-15 10:00:00 6.7 18 Sur 35 Sur 0 -- -- 85
2021-02-15 09:00:00 4.3 17 Sur 28 Sudoeste 0 -- -- 99
2021-02-15 08:00:00 0.8 0 Calma 5 Nordeste 0 -- -- 96
2021-02-15 07:00:00 1.3 3 Nordeste 9 Norte 0 -- -- 95
2021-02-15 06:00:00 1.5 4 Nordeste 8 Nordeste 0 -- -- 94
2021-02-15 05:00:00 2.7 2 Nordeste 13 Sudoeste 0 -- -- 92
2021-02-15 04:00:00 4.3 6 Sur 19 Sudoeste 0 -- -- 86
2021-02-15 03:00:00 6.7 17 Sudoeste 26 Sudoeste 0 -- -- 80
2021-02-15 02:00:00 6.6 10 Sudoeste 22 Sur 0 -- -- 82
2021-02-15 01:00:00 4.1 3 Nordeste 10 Sudoeste 0 -- -- 90
2021-02-15 00:00:00 4.3 7 Oeste 10 Sudoeste 0 -- -- 90
2021-02-14 23:00:00 4.8 3 Sudoeste 7 Sudoeste 0 -- -- 86
2021-02-14 22:00:00 5.5 2 Sudoeste 4 Sudoeste 0 -- -- 82
2021-02-14 21:00:00 7 0 Calma 6 Sudoeste 0 -- -- 76
2021-02-14 20:00:00 9.2 0 Calma 5 Sudoeste 0 -- -- 69
2021-02-14 19:00:00 11.6 5 Sudoeste 18 Sudoeste 0 -- -- 60
2021-02-14 18:00:00 13.9 12 Sudoeste 20 Sudoeste 0 -- -- 56
2021-02-14 17:00:00 16.2 10 Sur 19 Sur 0 -- -- 44
2021-02-14 16:00:00 15 8 Nordeste 19 Este 0 -- -- 58
2021-02-14 15:00:00 14.1 8 Nordeste 18 Norte 0 -- -- 60
2021-02-14 14:00:00 13.1 9 Nordeste 14 Nordeste 0 -- -- 65
2021-02-14 13:00:00 11.7 7 Nordeste 14 Este 0 -- -- 68
2021-02-14 12:00:00 10 5 Nordeste 10 Nordeste 0 -- -- 73
2021-02-14 11:00:00 8.1 6 Nordeste 10 Este 0 -- -- 78
2021-02-14 10:00:00 5.9 3 Nordeste 9 Oeste 0 -- -- 86
2021-02-14 09:00:00 2.9 7 Sudoeste 16 Oeste 0 -- -- 92
2021-02-14 08:00:00 1.8 12 Sudoeste 18 Oeste 0 -- -- 92
2021-02-14 07:00:00 2.2 10 Oeste 15 Oeste 0 -- -- 93
2021-02-14 06:00:00 2.1 13 Oeste 16 Sudoeste 0 -- -- 92
2021-02-14 05:00:00 2.3 12 Oeste 14 Oeste 0 -- -- 93
2021-02-14 04:00:00 2.5 9 Oeste 13 Oeste 0 -- -- 92
2021-02-14 03:00:00 3 13 Sudoeste 18 Oeste 0 -- -- 91
2021-02-14 02:00:00 4.3 14 Sudoeste 17 Sudoeste 0 -- -- 90
2021-02-14 01:00:00 5.1 10 Sudoeste 19 Oeste 0 -- -- 89
2021-02-14 00:00:00 5 12 Sudoeste 18 Sudoeste 0 -- -- 89
2021-02-13 23:00:00 5.8 4 Sudoeste 14 Oeste 0 -- -- 83
2021-02-13 22:00:00 7 4 Oeste 9 Oeste 0 -- -- 81
2021-02-13 21:00:00 8.1 3 Sur 15 Sudoeste 0 -- -- 78
2021-02-13 20:00:00 8.4 8 Oeste 15 Oeste 0 -- -- 76
2021-02-13 19:00:00 9.5 3 Nordeste 15 Oeste 0 -- -- 70
2021-02-13 18:00:00 11 5 Noroeste 26 Sudoeste 0 -- -- 65
2021-02-13 17:00:00 11 16 Oeste 28 Oeste 0 -- -- 67
2021-02-13 16:00:00 12.3 20 Sudoeste 30 Oeste 0 -- -- 56
2021-02-13 15:00:00 11.3 18 Oeste 30 Oeste 0 -- -- 63
2021-02-13 14:00:00 10 12 Sudoeste 24 Sudoeste 0 -- -- 69
2021-02-13 13:00:00 9.6 8 Sudoeste 16 Sudoeste 0 -- -- 75
2021-02-13 08:00:00 -- -- -- -- -- -- -- -- --
2021-02-13 07:00:00 -- -- -- -- -- -- -- -- --
2021-02-13 06:00:00 -- -- -- -- -- -- -- -- --
2021-02-13 05:00:00 3.9 3 Sudoeste 9 Sudoeste 0 -- -- 91
2021-02-13 04:00:00 4.3 4 Sudoeste 10 Sudoeste 0 -- -- 91
2021-02-13 03:00:00 4.3 4 Sudoeste 10 Sudoeste 0 -- -- 89
2021-02-13 02:00:00 4.8 6 Sudoeste 10 Oeste 0 -- -- 92
2021-02-13 01:00:00 5.4 5 Sudoeste 12 Oeste 0 -- -- 90
2021-02-13 00:00:00 6.5 10 Oeste 16 Oeste 0 -- -- 90
2021-02-12 23:00:00 6.6 9 Oeste 15 Sudoeste 0 -- -- 89
2021-02-12 22:00:00 7.4 8 Oeste 18 Oeste 0 -- -- 86
2021-02-12 21:00:00 7.3 10 Oeste 22 Oeste 0 -- -- 86
2021-02-12 20:00:00 8 17 Oeste 29 Sudoeste 0 -- -- 82
2021-02-12 19:00:00 10.2 9 Oeste 28 Oeste 0 -- -- 75
2021-02-12 18:00:00 10.8 21 Oeste 42 Sudoeste 0 -- -- 70
2021-02-12 17:00:00 11.6 28 Sudoeste 51 Sudoeste 0 -- -- 69
2021-02-12 16:00:00 11.1 35 Sudoeste 51 Oeste 0 -- -- 73
2021-02-12 15:00:00 10.3 28 Sudoeste 48 Sudoeste 0 -- -- 75
2021-02-12 14:00:00 9.4 30 Sudoeste 52 Sudoeste 0 -- -- 78
2021-02-12 13:00:00 9.4 32 Sudoeste 44 Sudoeste 0 -- -- 79
2021-02-12 12:00:00 9.2 31 Sudoeste 48 Oeste 0 -- -- 80
2021-02-12 11:00:00 9.5 29 Sudoeste 46 Sudoeste 0 -- -- 79
2021-02-12 10:00:00 8.6 9 Sudoeste 21 Sudoeste 0.2 -- -- 88
2021-02-12 09:00:00 8.2 13 Sudoeste 17 Sudoeste 0.2 -- -- 90
2021-02-12 08:00:00 8.4 18 Sudoeste 39 Sudoeste 1.2 -- -- 87
2021-02-12 07:00:00 9.6 17 Sudoeste 34 Sudoeste 1.8 -- -- 89
2021-02-12 06:00:00 10.5 22 Sudoeste 50 Sur 0 -- -- 81
2021-02-12 05:00:00 10.1 28 Sudoeste 50 Sudoeste 0 -- -- 81
2021-02-12 04:00:00 10.8 18 Sudoeste 41 Sudoeste 0 -- -- 82
2021-02-12 03:00:00 10.9 29 Sudoeste 45 Sudoeste 0 -- -- 80
2021-02-12 02:00:00 10.9 18 Sudoeste 34 Sudoeste 0 -- -- 82
2021-02-12 01:00:00 11.2 15 Sudoeste 34 Sudoeste 0 -- -- 82
2021-02-12 00:00:00 10.9 13 Sudoeste 25 Sudoeste 0 -- -- 85
2021-02-11 23:00:00 10.8 15 Sudoeste 30 Sudoeste 0 -- -- 85
2021-02-11 22:00:00 11 17 Sudoeste 27 Sur 0 -- -- 84
2021-02-11 21:00:00 10.9 16 Sudoeste 35 Sudoeste 0 -- -- 83
2021-02-11 20:00:00 11 12 Sudoeste 27 Sudoeste 0 -- -- 82
2021-02-11 19:00:00 11.5 19 Sudoeste 32 Sur 0 -- -- 80
2021-02-11 18:00:00 12.1 15 Sudoeste 33 Sur 0 -- -- 75
2021-02-11 17:00:00 13.1 21 Sur 36 Sur 0 -- -- 70
2021-02-11 16:00:00 14.2 21 Sur 37 Sudoeste 0 -- -- 66
2021-02-11 15:00:00 13.6 25 Sudoeste 40 Sudoeste 0 -- -- 67
2021-02-11 14:00:00 13.7 24 Sudoeste 42 Sudoeste 0 -- -- 67
2021-02-11 13:00:00 12.9 21 Sur 31 Sudoeste 0 -- -- 70
2021-02-11 12:00:00 10.4 14 Sudoeste 35 Sur 0 -- -- 76
2021-02-11 11:00:00 10.2 12 Sudoeste 29 Sudoeste 0 -- -- 75
2021-02-11 10:00:00 8.1 13 Sudoeste 26 Sudoeste 0 -- -- 81
2021-02-11 09:00:00 6.6 17 Sudoeste 26 Sudoeste 0 -- -- 84
2021-02-11 08:00:00 6 18 Sudoeste 28 Sudoeste 0 -- -- 84
2021-02-11 07:00:00 6.4 21 Sudoeste 28 Sudoeste 0 -- -- 81
2021-02-11 06:00:00 6.3 12 Sudoeste 21 Sudoeste 0 -- -- 78
2021-02-11 05:00:00 6.1 12 Sudoeste 25 Sudoeste 0 -- -- 76
2021-02-11 04:00:00 5.8 17 Sudoeste 24 Sudoeste 0 -- -- 80
2021-02-11 03:00:00 5.7 15 Sudoeste 21 Sudoeste 0 -- -- 82
2021-02-11 02:00:00 4.8 11 Oeste 17 Oeste 0 -- -- 83
2021-02-11 01:00:00 3.1 4 Sudoeste 11 Oeste 0 -- -- 82
2021-02-11 00:00:00 4 6 Sudoeste 12 Sudoeste 0 -- -- 81
2021-02-10 23:00:00 4.5 7 Oeste 10 Oeste 0 -- -- 79
2021-02-10 22:00:00 5 7 Oeste 19 Oeste 0 -- -- 79
2021-02-10 21:00:00 5.1 13 Oeste 19 Sudoeste 0 -- -- 78
2021-02-10 20:00:00 5.4 10 Sudoeste 15 Sudoeste 0 -- -- 74
2021-02-10 19:00:00 6.4 4 Oeste 27 Oeste 0 -- -- 71
2021-02-10 18:00:00 9.7 16 Oeste 36 Sudoeste 0 -- -- 58
2021-02-10 17:00:00 10.3 21 Sudoeste 37 Sudoeste 0 -- -- 55
2021-02-10 16:00:00 9.7 26 Sudoeste 39 Sudoeste 0 -- -- 57
2021-02-10 15:00:00 9.5 29 Sudoeste 43 Sudoeste 0 -- -- 58
2021-02-10 14:00:00 8.7 25 Oeste 43 Sudoeste 0 -- -- 62
2021-02-10 13:00:00 8.7 30 Sudoeste 53 Sudoeste 0 -- -- 64
2021-02-10 12:00:00 7 39 Sudoeste 58 Sudoeste 0 -- -- 66
2021-02-10 11:00:00 5.8 41 Sudoeste 71 Sudoeste 0 -- -- 75
2021-02-10 10:00:00 5.8 41 Sudoeste 66 Sudoeste 0 -- -- 79
2021-02-10 09:00:00 4.2 35 Sudoeste 52 Sudoeste 0 -- -- 85
2021-02-10 08:00:00 4.2 31 Sudoeste 51 Sudoeste 0 -- -- 83
2021-02-10 07:00:00 3.9 24 Sudoeste 40 Sur 0 -- -- 84
2021-02-10 06:00:00 2.9 17 Sudoeste 37 Oeste 1.4 -- -- 92
2021-02-10 05:00:00 3.2 13 Sudoeste 25 Sudoeste 2 -- -- 91
2021-02-10 04:00:00 4.1 18 Sudoeste 58 Sudoeste 1.6 -- -- 89
2021-02-10 03:00:00 5.7 28 Sudoeste 49 Sudoeste 0.2 -- -- 88
2021-02-10 02:00:00 5.6 23 Sudoeste 49 Sudoeste 0.8 -- -- 88
2021-02-10 01:00:00 5.5 23 Sudoeste 41 Sudoeste 0 -- -- 87
2021-02-10 00:00:00 2.7 9 Sudoeste 15 Sudoeste 0 -- -- 94
2021-02-09 23:00:00 2.7 9 Oeste 20 Sudoeste 0 -- -- 89
2021-02-09 22:00:00 3.6 8 Sudoeste 32 Noroeste 0.2 -- -- 90
2021-02-09 21:00:00 5 4 Sudoeste 16 Sur 0.4 -- -- 91
2021-02-09 20:00:00 4.9 13 Sur 30 Sur 0 -- -- 87
2021-02-09 19:00:00 5.1 17 Sur 35 Sudoeste 0 -- -- 82
2021-02-09 18:00:00 6.2 24 Sur 33 Sur 0 -- -- 81
2021-02-09 17:00:00 5.5 14 Sudoeste 49 Oeste 0.4 -- -- 86
2021-02-09 16:00:00 7.3 36 Sudoeste 64 Sur 2.4 -- -- 84
2021-02-09 15:00:00 7.7 39 Sur 72 Sur 1.6 -- -- 87
2021-02-09 14:00:00 7.6 46 Sur 81 Sur 0.6 -- -- 86
2021-02-09 13:00:00 7.6 50 Sur 77 Sur 0.4 -- -- 85
2021-02-09 12:00:00 7.5 46 Sur 67 Sur 0 -- -- 84
2021-02-09 11:00:00 7.4 35 Sur 69 Sur 0 -- -- 83
2021-02-09 10:00:00 6.5 40 Sur 68 Sur 0 -- -- 84
2021-02-09 09:00:00 5.1 44 Sur 61 Sur 0 -- -- 85
2021-02-09 08:00:00 3.8 30 Sudoeste 48 Sur 0.2 -- -- 86
2021-02-09 07:00:00 3.9 26 Sur 47 Sur 0 -- -- 86
2021-02-09 06:00:00 4.6 26 Sudoeste 42 Sudoeste 0 -- -- 86
2021-02-09 05:00:00 5.3 27 Sudoeste 46 Sudoeste 0 -- -- 85
2021-02-09 04:00:00 5.8 23 Sur 37 Sudoeste 0 -- -- 82
2021-02-09 03:00:00 5.9 26 Sudoeste 39 Sudoeste 0 -- -- 82
2021-02-09 02:00:00 6.2 24 Sudoeste 37 Sudoeste 0 -- -- 83
2021-02-09 01:00:00 6.1 20 Sudoeste 36 Sudoeste 0 -- -- 86
2021-02-09 00:00:00 6.1 20 Sudoeste 33 Sudoeste 0 -- -- 82
2021-02-08 23:00:00 6 22 Sudoeste 35 Sudoeste 0 -- -- 80
2021-02-08 22:00:00 5.9 18 Sudoeste 34 Sudoeste 0 -- -- 81
2021-02-08 21:00:00 5.8 17 Sudoeste 30 Sudoeste 0 -- -- 81
2021-02-08 20:00:00 6.1 18 Sudoeste 44 Sudoeste 0 -- -- 79
2021-02-08 19:00:00 6.4 30 Sudoeste 42 Sudoeste 0.2 -- -- 76
2021-02-08 18:00:00 7.8 27 Sudoeste 45 Sudoeste 0 -- -- 69
2021-02-08 17:00:00 8.5 24 Sudoeste 40 Sudoeste 0 -- -- 67
2021-02-08 16:00:00 9.6 30 Sudoeste 47 Sudoeste 0 -- -- 61
2021-02-08 15:00:00 8.7 27 Sudoeste 51 Sudoeste 0.2 -- -- 78
2021-02-08 14:00:00 9 35 Sudoeste 48 Sudoeste 0 -- -- 63
2021-02-08 13:00:00 8.1 29 Sudoeste 58 Sudoeste 0 -- -- 75
2021-02-08 12:00:00 8.1 28 Sudoeste 47 Sudoeste 0 -- -- 71
2021-02-08 11:00:00 7.1 27 Sudoeste 43 Sudoeste 0 -- -- 80
2021-02-08 10:00:00 5.6 24 Sudoeste 49 Sudoeste 0 -- -- 87
2021-02-08 09:00:00 4.6 19 Sudoeste 32 Sudoeste 0 -- -- 88
2021-02-08 08:00:00 4.5 22 Sudoeste 37 Sur 0 -- -- 88
2021-02-08 07:00:00 3.9 17 Sur 44 Sudoeste 1.4 -- -- 89
2021-02-08 06:00:00 4.3 32 Sur 53 Sudoeste 0.4 -- -- 87
2021-02-08 05:00:00 5.1 26 Sudoeste 47 Sudoeste 0.2 -- -- 87
2021-02-08 04:00:00 5.2 28 Sudoeste 46 Sudoeste 0.2 -- -- 87
2021-02-08 03:00:00 4.8 24 Sudoeste 44 Sur 0.2 -- -- 91
2021-02-08 02:00:00 4.7 21 Sudoeste 49 Sudoeste 0 -- -- 90
2021-02-08 01:00:00 5.4 22 Sudoeste 47 Sudoeste 0 -- -- 88
2021-02-08 00:00:00 5.7 20 Sudoeste 44 Sudoeste 0 -- -- 88
2021-02-07 23:00:00 5.9 26 Sudoeste 42 Sudoeste 0 -- -- 85
2021-02-07 22:00:00 6.3 20 Sudoeste 36 Sudoeste 0 -- -- 82
2021-02-07 21:00:00 6.1 20 Sudoeste 34 Sudoeste 0 -- -- 80
2021-02-07 20:00:00 6.3 25 Sudoeste 46 Sudoeste 0 -- -- 74
2021-02-07 19:00:00 7.1 28 Sudoeste 48 Sudoeste 0 -- -- 69
2021-02-07 18:00:00 7.7 25 Sudoeste 35 Sudoeste 0 -- -- 63
2021-02-07 17:00:00 8.4 21 Oeste 36 Sudoeste 0 -- -- 59
2021-02-07 16:00:00 9.2 19 Oeste 35 Oeste 0 -- -- 55
2021-02-07 15:00:00 8.5 23 Sudoeste 42 Sudoeste 0 -- -- 56
2021-02-07 14:00:00 7.7 24 Sudoeste 41 Sudoeste 0 -- -- 55
2021-02-07 13:00:00 7.2 25 Sudoeste 39 Sudoeste 0 -- -- 59
2021-02-07 12:00:00 5.8 15 Oeste 28 Oeste 0 -- -- 63
2021-02-07 11:00:00 5 20 Sudoeste 27 Sudoeste 0 -- -- 65
2021-02-07 10:00:00 2.9 15 Sudoeste 21 Sudoeste 0 -- -- 77
2021-02-07 09:00:00 1.6 4 Oeste 9 Sudoeste 0 -- -- 85
2021-02-07 08:00:00 1.5 0 Calma 15 Sudoeste 0 -- -- 84
2021-02-07 07:00:00 3.3 5 Sudoeste 8 Oeste 0 -- -- 88
2021-02-07 06:00:00 3.3 6 Oeste 11 Oeste 0 -- -- 87
2021-02-07 05:00:00 3 2 Oeste 15 Oeste 0 -- -- 88
2021-02-07 04:00:00 3.6 8 Noroeste 17 Oeste 0 -- -- 86
2021-02-07 03:00:00 4.1 2 Sudoeste 5 Noroeste 0 -- -- 85
2021-02-07 02:00:00 4.3 2 Norte 6 Norte 0 -- -- 85
2021-02-07 01:00:00 4.3 0 Calma 4 Sudeste 0 -- -- 90
2021-02-07 00:00:00 4.7 2 Sudeste 7 Nordeste 0 -- -- 87
2021-02-06 23:00:00 5 4 Nordeste 7 Norte 0 -- -- 85
2021-02-06 22:00:00 5.1 4 Nordeste 9 Nordeste 0 -- -- 87
2021-02-06 21:00:00 5.6 3 Nordeste 9 Este 0.2 -- -- 89
2021-02-06 20:00:00 6 4 Nordeste 12 Nordeste 0.2 -- -- 88
2021-02-06 19:00:00 6.6 3 Este 7 Sur 1.2 -- -- 87
2021-02-06 18:00:00 7.1 0 Calma 27 Oeste 0.6 -- -- 83
2021-02-06 17:00:00 8.8 18 Oeste 33 Oeste 0 -- -- 71
2021-02-06 16:00:00 12.6 14 Sur 23 Sudoeste 0 -- -- 60
2021-02-06 15:00:00 11 15 Sur 34 Sur 0 -- -- 67
2021-02-06 14:00:00 12.3 22 Sudoeste 40 Sudoeste 0 -- -- 60
2021-02-06 13:00:00 10.7 24 Sur 40 Sudoeste 0 -- -- 66
2021-02-06 12:00:00 11.6 27 Sur 39 Sudoeste 0 -- -- 66
2021-02-06 11:00:00 9.7 26 Sudoeste 38 Sudoeste 0 -- -- 76
2021-02-06 10:00:00 8.6 18 Sur 28 Sudoeste 0 -- -- 81
2021-02-06 09:00:00 7 13 Sur 29 Sur 0 -- -- 86
2021-02-06 08:00:00 7.2 20 Sur 31 Sur 0 -- -- 87
2021-02-06 07:00:00 7.1 13 Sur 31 Sur 0 -- -- 89
2021-02-06 06:00:00 6.5 0 Calma 5 Sur 0.2 -- -- 92
2021-02-06 05:00:00 6.4 3 Sur 6 Sudoeste 0 -- -- 92
2021-02-06 04:00:00 6.5 0 Calma 6 Oeste 0 -- -- 91
2021-02-06 03:00:00 6.7 3 Sur 11 Sudoeste 0 -- -- 88
2021-02-06 02:00:00 6.8 9 Oeste 21 Sudoeste 0 -- -- 89
2021-02-06 01:00:00 7.3 17 Sudoeste 54 Sur 1.6 -- -- 86
2021-02-06 00:00:00 7.4 7 Nordeste 21 Sur 0 -- -- 91
2021-02-05 23:00:00 6.7 2 Sudeste 14 Oeste 0 -- -- 88
2021-02-05 22:00:00 6.2 5 Sudoeste 7 Sur 0 -- -- 88
2021-02-05 21:00:00 6.8 0 Calma 7 Norte 0 -- -- 81
2021-02-05 20:00:00 8.8 4 Norte 10 Norte 0 -- -- 78
2021-02-05 19:00:00 10.2 5 Norte 17 Nordeste 0 -- -- 73
2021-02-05 18:00:00 12.7 13 Nordeste 26 Nordeste 0 -- -- 64
2021-02-05 17:00:00 15.8 10 Nordeste 16 Nordeste 0 -- -- 54
2021-02-05 16:00:00 16 7 Nordeste 16 Nordeste 0 -- -- 53
2021-02-05 15:00:00 15.3 8 Nordeste 13 Este 0 -- -- 57
2021-02-05 14:00:00 14 9 Nordeste 16 Nordeste 0 -- -- 61
2021-02-05 13:00:00 12.6 6 Nordeste 13 Nordeste 0 -- -- 65
2021-02-05 12:00:00 11.6 5 Este 10 Este 0 -- -- 70
2021-02-05 11:00:00 10 3 Este 6 Este 0 -- -- 80
2021-02-05 10:00:00 5.9 2 Sur 11 Sudoeste 0 -- -- 95
2021-02-05 09:00:00 2.9 7 Sudoeste 10 Sudoeste 0 -- -- 94
2021-02-05 08:00:00 2.5 3 Sudoeste 6 Sudoeste 0 -- -- 93
2021-02-05 07:00:00 3.3 3 Oeste 5 Sudoeste 0 -- -- 94
2021-02-05 06:00:00 3.3 3 Sudoeste 7 Sudoeste 0 -- -- 93
2021-02-05 05:00:00 3.5 3 Sudoeste 6 Sudoeste 0 -- -- 93
2021-02-05 04:00:00 3.6 4 Sur 9 Sudoeste 0 -- -- 93
2021-02-05 03:00:00 3.5 0 Calma 12 Sudoeste 0 -- -- 92
2021-02-05 02:00:00 3.8 3 Sudoeste 10 Sudoeste 0 -- -- 91
2021-02-05 01:00:00 4.6 0 Calma 5 Sudeste 0 -- -- 90
2021-02-05 00:00:00 5.7 6 Sudoeste 11 Oeste 0 -- -- 90
2021-02-04 23:00:00 5.4 4 Sur 7 Sur 0 -- -- 87
2021-02-04 22:00:00 6.3 5 Oeste 12 Oeste 0 -- -- 85
2021-02-04 21:00:00 7.8 5 Sur 13 Oeste 0 -- -- 80
2021-02-04 20:00:00 9.7 9 Oeste 22 Sudoeste 0 -- -- 76
2021-02-04 19:00:00 11.6 15 Sudoeste 31 Sudoeste 0 -- -- 64
2021-02-04 18:00:00 13.8 20 Sudoeste 31 Sur 0 -- -- 57
2021-02-04 17:00:00 15.4 21 Sur 34 Sur 0 -- -- 52
2021-02-04 16:00:00 16.3 19 Sur 39 Sur 0 -- -- 46
2021-02-04 15:00:00 16.9 23 Sur 39 Sur 0 -- -- 43
2021-02-04 14:00:00 17.5 17 Sur 28 Sur 0 -- -- 44
2021-02-04 13:00:00 15.4 4 Noroeste 16 Norte 0 -- -- 58
2021-02-04 12:00:00 13.6 7 Nordeste 13 Nordeste 0 -- -- 72
2021-02-04 11:00:00 12 3 Nordeste 8 Nordeste 0 -- -- 77
2021-02-04 10:00:00 9.8 3 Sudeste 5 Este 0 -- -- 88
2021-02-04 09:00:00 9.1 0 Calma 2 Sudeste 0 -- -- 91
2021-02-04 08:00:00 9.1 0 Calma 5 Sudoeste 0 -- -- 90
2021-02-04 07:00:00 9.1 4 Sudoeste 8 Sudoeste 0 -- -- 90
2021-02-04 06:00:00 9.1 0 Calma 5 Oeste 0 -- -- 91
2021-02-04 05:00:00 9.2 5 Oeste 12 Sudoeste 0 -- -- 90
2021-02-04 04:00:00 9.1 3 Norte 6 Sur 0 -- -- 90
2021-02-04 03:00:00 9.4 6 Sur 22 Sur 0 -- -- 88
2021-02-04 02:00:00 9.9 8 Sur 22 Sur 0 -- -- 83
2021-02-04 01:00:00 9.8 7 Sudoeste 24 Sur 0 -- -- 84
2021-02-04 00:00:00 10.2 10 Sur 23 Sur 0 -- -- 83
2021-02-03 23:00:00 10.2 12 Sur 20 Sur 0 -- -- 83
2021-02-03 22:00:00 10.5 9 Sur 26 Sur 0 -- -- 83
2021-02-03 21:00:00 10.5 13 Sur 22 Sudoeste 0 -- -- 83
2021-02-03 20:00:00 10.7 12 Sur 28 Sur 0 -- -- 80
2021-02-03 19:00:00 10.7 16 Sur 31 Sur 0 -- -- 78
2021-02-03 18:00:00 10.8 17 Sur 29 Sudoeste 0 -- -- 79
2021-02-03 17:00:00 11.2 18 Sur 32 Sur 0 -- -- 77
2021-02-03 16:00:00 10.8 23 Sur 33 Sur 0 -- -- 78
2021-02-03 15:00:00 10.3 22 Sur 41 Sur 0 -- -- 80
2021-02-03 14:00:00 10.3 28 Sur 42 Sur 0 -- -- 79
2021-02-03 13:00:00 10.6 30 Sur 46 Sur 0 -- -- 77
2021-02-03 12:00:00 10.7 27 Sudoeste 50 Sudoeste 0 -- -- 73
2021-02-03 11:00:00 10 33 Sudoeste 55 Sudoeste 0 -- -- 74
2021-02-03 10:00:00 9 33 Sudoeste 65 Sudoeste 0 -- -- 76
2021-02-03 09:00:00 8.4 32 Sudoeste 50 Sudoeste 0 -- -- 80
2021-02-03 08:00:00 8.3 39 Sudoeste 62 Sudoeste 0 -- -- 79
2021-02-03 07:00:00 8.2 35 Sudoeste 56 Sudoeste 0 -- -- 78
2021-02-03 06:00:00 8 31 Sudoeste 56 Sudoeste 0 -- -- 75
2021-02-03 05:00:00 8 33 Sudoeste 60 Sur 0 -- -- 73
2021-02-03 04:00:00 8 34 Sudoeste 61 Sudoeste 0 -- -- 74
2021-02-03 03:00:00 8.4 40 Sudoeste 67 Sudoeste 0 -- -- 73
2021-02-03 02:00:00 8.9 39 Sudoeste 69 Sudoeste 0 -- -- 73
2021-02-03 01:00:00 9.6 35 Sudoeste 63 Sur 0 -- -- 72
2021-02-03 00:00:00 9.7 30 Sudoeste 60 Sudoeste 0 -- -- 78
2021-02-02 23:00:00 9.7 30 Sudoeste 54 Sudoeste 0 -- -- 74
2021-02-02 22:00:00 9.8 33 Sudoeste 54 Sudoeste 0 -- -- 72
2021-02-02 21:00:00 10.2 27 Sudoeste 46 Sur 0 -- -- 73
2021-02-02 20:00:00 10.5 12 Sudoeste 34 Sudoeste 0 -- -- 73
2021-02-02 19:00:00 10.5 18 Sur 37 Sudoeste 0 -- -- 77
2021-02-02 18:00:00 10.6 25 Sur 38 Sur 0 -- -- 76
2021-02-02 17:00:00 11.3 24 Sudoeste 44 Sudoeste 0 -- -- 75
2021-02-02 16:00:00 11.7 21 Sudoeste 42 Sudoeste 0 -- -- 72
2021-02-02 15:00:00 12.7 23 Sudoeste 38 Sudoeste 0 -- -- 68
2021-02-02 14:00:00 11.8 21 Sudoeste 42 Sudoeste 0 -- -- 72
2021-02-02 13:00:00 12.6 24 Sudoeste 44 Sudoeste 0 -- -- 70
2021-02-02 12:00:00 10.6 24 Sudoeste 40 Sudoeste 0 -- -- 76
2021-02-02 11:00:00 9.6 25 Sudoeste 34 Sudoeste 0 -- -- 80
2021-02-02 10:00:00 8.5 21 Sudoeste 33 Sudoeste 0 -- -- 85
2021-02-02 09:00:00 7.7 13 Sudoeste 31 Oeste 0 -- -- 89
2021-02-02 08:00:00 7.4 18 Sudoeste 33 Sudoeste 0 -- -- 90
2021-02-02 07:00:00 7.3 15 Sudoeste 24 Sudoeste 0 -- -- 90
2021-02-02 06:00:00 7.9 15 Sudoeste 30 Sudoeste 0 -- -- 88
2021-02-02 05:00:00 7.1 11 Sudoeste 21 Sudoeste 0 -- -- 90
2021-02-02 04:00:00 6.4 10 Sudoeste 19 Sudoeste 0 -- -- 89
2021-02-02 03:00:00 6.5 16 Sudoeste 26 Sudoeste 0 -- -- 88
2021-02-02 02:00:00 6.7 17 Sudoeste 26 Oeste 0 -- -- 84
2021-02-02 01:00:00 7.2 14 Sudoeste 26 Sudoeste 0 -- -- 82
2021-02-02 00:00:00 6.9 16 Sudoeste 21 Sudoeste 0 -- -- 82
2021-02-01 23:00:00 7.6 8 Sudoeste 24 Sudoeste 0 -- -- 77
2021-02-01 22:00:00 6.2 5 Sudoeste 19 Oeste 0 -- -- 82
2021-02-01 21:00:00 7.8 13 Oeste 21 Oeste 0 -- -- 78
2021-02-01 20:00:00 9.7 16 Oeste 27 Sudoeste 0 -- -- 71
2021-02-01 19:00:00 10.6 19 Oeste 35 Sudoeste 0 -- -- 68
2021-02-01 18:00:00 12.3 24 Oeste 40 Sudoeste 0 -- -- 60
2021-02-01 17:00:00 12.8 21 Oeste 50 Oeste 0 -- -- 57
2021-02-01 16:00:00 13.4 26 Sudoeste 50 Oeste 0 -- -- 62
2021-02-01 15:00:00 13.2 28 Sudoeste 46 Sudoeste 0 -- -- 62
2021-02-01 14:00:00 13.3 33 Oeste 58 Sudoeste 0 -- -- 63
2021-02-01 13:00:00 13.5 36 Oeste 68 Sudoeste 0 -- -- 61
2021-02-01 12:00:00 13 38 Oeste 69 Sudoeste 0 -- -- 62
2021-02-01 11:00:00 12 36 Sudoeste 60 Oeste 0 -- -- 63
2021-02-01 10:00:00 10.2 33 Sudoeste 52 Sudoeste 0 -- -- 66
2021-02-01 09:00:00 8.3 37 Sudoeste 57 Sudoeste 0 -- -- 71
2021-02-01 08:00:00 7.8 35 Sudoeste 63 Oeste 0 -- -- 73
2021-02-01 07:00:00 8.1 39 Sudoeste 67 Sudoeste 0 -- -- 72
2021-02-01 06:00:00 8.3 42 Sudoeste 67 Sudoeste 0 -- -- 71
2021-02-01 05:00:00 8.6 40 Sudoeste 68 Sudoeste 0 -- -- 69
2021-02-01 04:00:00 8.9 41 Sudoeste 64 Oeste 0 -- -- 68
2021-02-01 03:00:00 9.6 41 Sudoeste 68 Sudoeste 0 -- -- 67
2021-02-01 02:00:00 10 42 Sudoeste 77 Sudoeste 0 -- -- 66
2021-02-01 01:00:00 10.8 50 Sudoeste 72 Sudoeste 0 -- -- 63
2021-02-01 00:00:00 11.2 45 Sudoeste 69 Sudoeste 0 -- -- 62
2021-01-31 23:00:00 11 38 Sudoeste 61 Sudoeste 0 -- -- 65
2021-01-31 22:00:00 11.5 39 Sudoeste 66 Sudoeste 0 -- -- 63
2021-01-31 21:00:00 10.8 21 Sudoeste 42 Sudoeste 0 -- -- 72
2021-01-31 20:00:00 11.3 20 Sudoeste 40 Sudoeste 0 -- -- 67
2021-01-31 19:00:00 11.7 26 Sudoeste 44 Sudoeste 0 -- -- 69
2021-01-31 18:00:00 11.5 23 Sudoeste 36 Sudoeste 0 -- -- 78
2021-01-31 17:00:00 12.3 23 Sudoeste 36 Sudoeste 0 -- -- 74
2021-01-31 16:00:00 13.3 26 Sudoeste 41 Sudoeste 0 -- -- 68
2021-01-31 15:00:00 11.9 27 Sudoeste 37 Sur 0 -- -- 73
2021-01-31 14:00:00 10.5 25 Sur 40 Sudoeste 0 -- -- 78
2021-01-31 13:00:00 10.7 21 Sudoeste 33 Sudoeste 0 -- -- 70
2021-01-31 12:00:00 9.4 15 Sudoeste 33 Sudoeste 0 -- -- 71
2021-01-31 11:00:00 7.8 13 Sudoeste 30 Sur 0 -- -- 72
2021-01-31 10:00:00 7.4 19 Sudoeste 37 Sudoeste 0 -- -- 75
2021-01-31 09:00:00 6.7 22 Sudoeste 41 Sudoeste 0 -- -- 73
2021-01-31 08:00:00 6 24 Sudoeste 33 Sudoeste 0 -- -- 73
2021-01-31 07:00:00 5.5 15 Sudoeste 31 Sudoeste 0 -- -- 76
2021-01-31 06:00:00 5.1 9 Sudoeste 35 Oeste 0 -- -- 77
2021-01-31 05:00:00 5.5 24 Sudoeste 53 Sudoeste 0 -- -- 76
2021-01-31 04:00:00 5.9 28 Sudoeste 60 Sudoeste 0 -- -- 75
2021-01-31 03:00:00 6 45 Sudoeste 69 Sudoeste 0 -- -- 73
2021-01-31 02:00:00 5.8 39 Sudoeste 65 Sudoeste 0 -- -- 74
2021-01-31 01:00:00 5.6 31 Sudoeste 47 Sudoeste 0 -- -- 75
2021-01-31 00:00:00 5.5 26 Sudoeste 51 Sudoeste 0 -- -- 74
2021-01-30 23:00:00 5.9 36 Sudoeste 55 Sudoeste 0 -- -- 73
2021-01-30 22:00:00 6.4 35 Sudoeste 66 Sudoeste 0 -- -- 72
2021-01-30 21:00:00 6.7 34 Sudoeste 56 Sudoeste 0 -- -- 73
2021-01-30 20:00:00 7.4 39 Sudoeste 71 Sudoeste 0 -- -- 70
2021-01-30 19:00:00 7.6 39 Sudoeste 62 Sudoeste 0 -- -- 64
2021-01-30 18:00:00 7.9 43 Sudoeste 72 Sudoeste 0 -- -- 66
2021-01-30 17:00:00 9.2 41 Sudoeste 69 Sudoeste 0 -- -- 60
2021-01-30 16:00:00 8.8 38 Sudoeste 75 Sudoeste 0 -- -- 65
2021-01-30 15:00:00 10 52 Sudoeste 73 Sudoeste 0 -- -- 59
2021-01-30 14:00:00 8.8 37 Sudoeste 67 Sudoeste 0.2 -- -- 70
2021-01-30 13:00:00 9.1 43 Sudoeste 61 Sudoeste 0 -- -- 70
2021-01-30 12:00:00 8.6 28 Sudoeste 59 Sudoeste 0.2 -- -- 76
2021-01-30 11:00:00 8.7 28 Sudoeste 46 Sudoeste 0 -- -- 76
2021-01-30 10:00:00 7.7 26 Sudoeste 39 Sudoeste 0.4 -- -- 87
2021-01-30 09:00:00 7 14 Sudoeste 36 Sudoeste 0.4 -- -- 87
2021-01-30 08:00:00 7.8 24 Sudoeste 46 Sudoeste 0.4 -- -- 83
2021-01-30 07:00:00 8.3 32 Sudoeste 50 Sudoeste 2 -- -- 86
2021-01-30 06:00:00 9 26 Sudoeste 45 Sudoeste 0.2 -- -- 89
2021-01-30 05:00:00 9.9 32 Sudoeste 53 Sudoeste 0 -- -- 80
2021-01-30 04:00:00 9.5 17 Sudoeste 42 Sudoeste 0 -- -- 87
2021-01-30 03:00:00 9.3 29 Sudoeste 47 Sudoeste 0 -- -- 85
2021-01-30 02:00:00 9.6 25 Sudoeste 44 Sudoeste 0 -- -- 83
2021-01-30 01:00:00 9.4 23 Sur 44 Sudoeste 0 -- -- 83
2021-01-30 00:00:00 9.4 24 Sudoeste 41 Sudoeste 0 -- -- 85
2021-01-29 23:00:00 8.7 17 Sudoeste 36 Sudoeste 0 -- -- 86
2021-01-29 22:00:00 9.2 21 Sudoeste 34 Sudoeste 0 -- -- 87
2021-01-29 21:00:00 9.8 22 Sudoeste 32 Sudoeste 0 -- -- 86
2021-01-29 20:00:00 9.9 18 Sudoeste 34 Sudoeste 0 -- -- 86
2021-01-29 19:00:00 10.3 24 Sudoeste 29 Sudoeste 0 -- -- 81
2021-01-29 18:00:00 13 16 Oeste 24 Sudoeste 0 -- -- 72
2021-01-29 17:00:00 15.5 14 Sudoeste 22 Sudoeste 0 -- -- 64
2021-01-29 16:00:00 14.6 18 Sudoeste 26 Sudoeste 0 -- -- 69
2021-01-29 15:00:00 13.3 18 Oeste 32 Sudoeste 0 -- -- 74
2021-01-29 14:00:00 14 19 Sudoeste 33 Sudoeste 0 -- -- 70
2021-01-29 13:00:00 13.7 17 Sudoeste 27 Sudoeste 0 -- -- 72
2021-01-29 12:00:00 12.2 11 Sudoeste 22 Sur 0 -- -- 76
2021-01-29 11:00:00 11.3 13 Sudoeste 24 Sur 0 -- -- 78
2021-01-29 10:00:00 9.6 14 Sur 22 Sur 0 -- -- 88
2021-01-29 09:00:00 8 9 Sudoeste 16 Sudoeste 0 -- -- 91
2021-01-29 08:00:00 7.5 12 Sudoeste 20 Sudoeste 0 -- -- 91
2021-01-29 07:00:00 7.7 13 Sudoeste 21 Sudoeste 0 -- -- 90
2021-01-29 06:00:00 8.2 15 Sudoeste 24 Sudoeste 0 -- -- 89
2021-01-29 05:00:00 8.5 15 Sudoeste 27 Sudoeste 0 -- -- 89
2021-01-29 04:00:00 8.8 18 Sudoeste 35 Sudoeste 0 -- -- 89
2021-01-29 03:00:00 9 18 Sudoeste 30 Sudoeste 0 -- -- 88
2021-01-29 02:00:00 9.3 23 Sudoeste 34 Sudoeste 0 -- -- 88
2021-01-29 01:00:00 9.2 17 Sudoeste 33 Sur 0 -- -- 88
2021-01-29 00:00:00 9.7 22 Sur 31 Sur 0 -- -- 88
2021-01-28 23:00:00 9.7 10 Oeste 28 Sur 0 -- -- 87
2021-01-28 22:00:00 10.1 17 Sudoeste 31 Sur 0 -- -- 87
2021-01-28 21:00:00 10.5 22 Sur 34 Sur 0 -- -- 86
2021-01-28 20:00:00 10.8 20 Sudoeste 32 Sudoeste 0 -- -- 85
2021-01-28 19:00:00 11.2 11 Sudoeste 36 Sudoeste 0 -- -- 84
2021-01-28 18:00:00 12.4 24 Sudoeste 42 Sudoeste 0 -- -- 80
2021-01-28 17:00:00 14.2 19 Sudoeste 33 Sudoeste 0 -- -- 75
2021-01-28 16:00:00 15.2 22 Sur 34 Sur 0 -- -- 72
2021-01-28 15:00:00 15 17 Sur 31 Sudoeste 0 -- -- 72
2021-01-28 14:00:00 14.8 23 Sudoeste 35 Sur 0 -- -- 71
2021-01-28 13:00:00 13.5 20 Sudoeste 29 Sudoeste 0 -- -- 74
2021-01-28 12:00:00 13.3 17 Sur 27 Sudoeste 0 -- -- 76
2021-01-28 11:00:00 11.5 15 Sudoeste 24 Oeste 0 -- -- 82
2021-01-28 10:00:00 9.6 16 Sudoeste 25 Sudoeste 0 -- -- 90
2021-01-28 09:00:00 7.8 17 Oeste 22 Sudoeste 0 -- -- 92
2021-01-28 08:00:00 7.5 15 Sudoeste 22 Sudoeste 0 -- -- 93
2021-01-28 07:00:00 7.3 10 Oeste 14 Oeste 0 -- -- 93
2021-01-28 06:00:00 7.7 5 Sudoeste 15 Sudoeste 0 -- -- 92
2021-01-28 05:00:00 8.1 7 Sudoeste 12 Sudoeste 0 -- -- 92
2021-01-28 04:00:00 8.7 10 Oeste 12 Oeste 0 -- -- 91
2021-01-28 03:00:00 7.8 8 Oeste 14 Oeste 0 -- -- 89
2021-01-28 02:00:00 8 9 Oeste 19 Oeste 0 -- -- 90
2021-01-28 01:00:00 7.6 13 Oeste 19 Sudoeste 0 -- -- 90
2021-01-28 00:00:00 7.9 16 Oeste 20 Oeste 0 -- -- 90
2021-01-27 23:00:00 8.1 13 Oeste 18 Oeste 0 -- -- 91
2021-01-27 22:00:00 7.8 3 Sudoeste 9 Oeste 0 -- -- 89
2021-01-27 21:00:00 9.3 6 Oeste 10 Oeste 0 -- -- 89
2021-01-27 20:00:00 10.4 14 Sudoeste 23 Sudoeste 0 -- -- 85
2021-01-27 19:00:00 11.6 16 Sudoeste 26 Sudoeste 0 -- -- 83
2021-01-27 18:00:00 13 24 Oeste 37 Oeste 0 -- -- 79
2021-01-27 17:00:00 14.8 23 Sudoeste 35 Sudoeste 0 -- -- 72
2021-01-27 16:00:00 14.8 23 Sudoeste 32 Sudoeste 0 -- -- 73
2021-01-27 15:00:00 15 22 Sudoeste 35 Sudoeste 0 -- -- 73
2021-01-27 14:00:00 14.7 16 Oeste 31 Oeste 0 -- -- 78
2021-01-27 13:00:00 14 17 Oeste 42 Sudoeste 0 -- -- 80
2021-01-27 12:00:00 13.6 22 Oeste 43 Oeste 0 -- -- 82
2021-01-27 11:00:00 12.3 28 Oeste 42 Oeste 0 -- -- 86
2021-01-27 10:00:00 11.3 12 Sudoeste 35 Oeste 0 -- -- 89
2021-01-27 09:00:00 11 23 Sudoeste 33 Oeste 0 -- -- 93
2021-01-27 08:00:00 10.1 10 Sudoeste 17 Sudoeste 0 -- -- 95
2021-01-27 07:00:00 10.2 16 Sudoeste 26 Sudoeste 0.2 -- -- 95
2021-01-27 06:00:00 10.5 19 Oeste 26 Sudoeste 0 -- -- 94
2021-01-27 05:00:00 10 17 Sudoeste 27 Sudoeste 0 -- -- 94
2021-01-27 04:00:00 9.6 13 Sudoeste 23 Sudoeste 0 -- -- 94
2021-01-27 03:00:00 9.5 12 Sudoeste 17 Sudoeste 0 -- -- 95
2021-01-27 02:00:00 9.5 11 Sudoeste 17 Sudoeste 0 -- -- 95
2021-01-27 01:00:00 9.5 7 Sudoeste 11 Oeste 0 -- -- 95
2021-01-27 00:00:00 9.4 8 Sudoeste 11 Sudoeste 0 -- -- 96
2021-01-26 23:00:00 8.9 3 Sudoeste 8 Sudoeste 0 -- -- 96
2021-01-26 22:00:00 8.2 0 Calma 11 Sudoeste 0 -- -- 95
2021-01-26 21:00:00 9.1 8 Sudoeste 15 Sudoeste 0.2 -- -- 94
2021-01-26 20:00:00 9.9 8 Sudoeste 14 Sudoeste 0.2 -- -- 95
2021-01-26 19:00:00 10.3 8 Oeste 11 Sudoeste 0.8 -- -- 94
2021-01-26 18:00:00 11 10 Oeste 16 Oeste 0 -- -- 91
2021-01-26 17:00:00 11.6 10 Sudoeste 19 Sudoeste 0 -- -- 89
2021-01-26 16:00:00 11.6 11 Sudoeste 26 Sudoeste 0 -- -- 88
2021-01-26 15:00:00 11.8 12 Sudoeste 26 Sudoeste 0 -- -- 88
2021-01-26 14:00:00 10.4 0 Calma 17 Sudoeste 0 -- -- 92
2021-01-26 13:00:00 9.2 0 Calma 5 Este 0 -- -- 94
2021-01-26 12:00:00 7.7 0 Calma 3 Norte 0 -- -- 98
2021-01-26 11:00:00 5.3 0 Calma 4 Nordeste 0 -- -- 98
2021-01-26 10:00:00 2.7 0 Calma 8 Sudoeste 0 -- -- 97
2021-01-26 09:00:00 1.3 5 Sudoeste 9 Sudoeste 0 -- -- 96
2021-01-26 08:00:00 1.2 3 Norte 5 Norte 0 -- -- 95
2021-01-26 07:00:00 1.7 3 Sur 17 Sudoeste 0.2 -- -- 96
2021-01-26 06:00:00 3.3 14 Sudoeste 25 Sudoeste 0 -- -- 96
2021-01-26 05:00:00 2.3 15 Sudoeste 22 Sudoeste 0 -- -- 98
2021-01-26 04:00:00 0.9 2 Sudoeste 5 Sudoeste 0 -- -- 96
2021-01-26 03:00:00 0.9 0 Calma 5 Sudoeste 0 -- -- 95
2021-01-26 02:00:00 1.5 3 Sudoeste 9 Oeste 0 -- -- 95
2021-01-26 01:00:00 1.9 4 Sudoeste 8 Oeste 0 -- -- 95
2021-01-26 00:00:00 2.8 7 Oeste 11 Oeste 0 -- -- 95
2021-01-25 23:00:00 3.6 8 Sudoeste 12 Sudoeste 0 -- -- 94
2021-01-25 22:00:00 5 7 Sudoeste 18 Oeste 0 -- -- 93
2021-01-25 21:00:00 4.2 0 Calma 10 Oeste 0 -- -- 93
2021-01-25 20:00:00 6.1 9 Oeste 14 Oeste 0 -- -- 93
2021-01-25 19:00:00 6.7 3 Sudoeste 4 Sudoeste 0 -- -- 93
2021-01-25 18:00:00 7.7 3 Noroeste 6 Este 0 -- -- 93
2021-01-25 17:00:00 7.9 3 Este 32 Sudoeste 3.8 -- -- 91
2021-01-25 16:00:00 10.5 23 Sudoeste 43 Sudoeste 1 -- -- 90
2021-01-25 15:00:00 10.5 25 Sudoeste 46 Sudoeste 0.8 -- -- 90
2021-01-25 14:00:00 10.6 30 Sudoeste 52 Sudoeste 0.2 -- -- 87
2021-01-25 13:00:00 10.7 28 Sudoeste 54 Sudoeste 0 -- -- 87
2021-01-25 12:00:00 10.2 35 Sudoeste 51 Sur 0.2 -- -- 87
2021-01-25 11:00:00 9.4 35 Sudoeste 55 Sudoeste 0 -- -- 88
2021-01-25 10:00:00 8.6 32 Sudoeste 48 Sudoeste 0.4 -- -- 90
2021-01-25 09:00:00 8.1 29 Sudoeste 61 Sudoeste 0.2 -- -- 90
2021-01-25 08:00:00 8 31 Sudoeste 50 Sudoeste 0 -- -- 89
2021-01-25 07:00:00 7.6 36 Sudoeste 58 Sudoeste 0.4 -- -- 89
2021-01-25 06:00:00 7.4 35 Sudoeste 51 Sudoeste 0.4 -- -- 88
2021-01-25 05:00:00 6.8 18 Sudoeste 42 Sudoeste 0 -- -- 86
2021-01-25 04:00:00 6.7 17 Sudoeste 38 Sudoeste 0 -- -- 81
2021-01-25 03:00:00 6.4 21 Sudoeste 31 Sudoeste 0 -- -- 81
2021-01-25 02:00:00 5.7 19 Sudoeste 27 Sudoeste 0 -- -- 82
2021-01-25 01:00:00 5.5 11 Sudoeste 28 Sudoeste 0 -- -- 75
2021-01-25 00:00:00 6.1 21 Sudoeste 28 Sudoeste 0 -- -- 71